createdAt,value
2023-05-09T00:01:50.112Z,12.92
2023-05-09T00:04:17.905Z,13.07
2023-05-09T00:06:45.808Z,12.89
2023-05-09T00:09:13.217Z,12.41
2023-05-09T00:11:40.893Z,12.69
2023-05-09T00:14:08.287Z,12.82
2023-05-09T00:16:36.823Z,12.96
2023-05-09T00:19:04.557Z,12.91
2023-05-09T00:21:31.921Z,12.63
2023-05-09T00:24:00.440Z,12.80
2023-05-09T00:26:28.162Z,12.70
2023-05-09T00:28:55.502Z,12.61
2023-05-09T00:31:22.945Z,11.94
2023-05-09T00:33:50.616Z,12.17
2023-05-09T00:36:18.019Z,12.56
2023-05-09T00:38:45.368Z,12.79
2023-05-09T00:41:12.977Z,12.62
2023-05-09T00:43:40.392Z,12.37
2023-05-09T00:46:08.667Z,12.58
2023-05-09T00:48:36.383Z,12.77
2023-05-09T00:51:04.876Z,12.53
2023-05-09T00:53:32.342Z,12.85
2023-05-09T00:56:00.323Z,12.82
2023-05-09T00:58:27.828Z,13.09
2023-05-09T01:00:55.251Z,12.90
2023-05-09T01:03:23.076Z,12.62
2023-05-09T01:06:00.204Z,12.49
2023-05-09T01:09:08.940Z,12.65
2023-05-09T01:12:03.712Z,12.84
2023-05-09T01:14:51.654Z,12.58
2023-05-09T01:17:36.289Z,12.67
2023-05-09T01:20:28.664Z,12.27
2023-05-09T01:23:05.547Z,12.44
2023-05-09T01:25:51.508Z,12.32
2023-05-09T01:28:34.012Z,12.38
2023-05-09T01:31:01.727Z,11.83
2023-05-09T01:33:29.137Z,11.43
2023-05-09T01:35:59.773Z,11.33
2023-05-09T01:38:27.412Z,12.07
2023-05-09T01:40:55.323Z,11.68
2023-05-09T01:43:23.271Z,12.11
2023-05-09T01:45:50.868Z,11.60
2023-05-09T01:48:18.241Z,11.89
2023-05-09T01:50:45.897Z,11.91
2023-05-09T01:53:13.897Z,12.33
2023-05-09T01:55:41.609Z,12.16
2023-05-09T01:58:09.012Z,12.43
2023-05-09T02:00:36.754Z,12.08
2023-05-09T02:03:04.930Z,12.53
2023-05-09T02:05:33.178Z,12.73
2023-05-09T02:08:01.382Z,12.49
2023-05-09T02:10:29.191Z,12.03
2023-05-09T02:12:57.442Z,11.90
2023-05-09T02:15:25.045Z,12.09
2023-05-09T02:17:52.709Z,12.24
2023-05-09T02:20:20.127Z,12.24
2023-05-09T02:22:47.433Z,12.29
2023-05-09T02:25:15.686Z,12.11
2023-05-09T02:27:44.499Z,12.24
2023-05-09T02:30:17.296Z,12.17
2023-05-09T02:32:45.708Z,12.42
2023-05-09T02:35:13.406Z,12.53
2023-05-09T02:37:40.997Z,11.51
2023-05-09T02:40:09.267Z,12.23
2023-05-09T02:42:36.673Z,11.99
2023-05-09T02:45:04.334Z,11.83
2023-05-09T02:47:32.169Z,11.94
2023-05-09T02:49:59.543Z,11.76
2023-05-09T02:52:27.474Z,12.10
2023-05-09T02:54:55.135Z,11.72
2023-05-09T02:57:22.626Z,11.69
2023-05-09T02:59:50.017Z,11.62
2023-05-09T03:02:17.748Z,11.91
2023-05-09T03:04:45.441Z,11.99
2023-05-09T03:07:12.806Z,11.57
2023-05-09T03:09:41.287Z,11.07
2023-05-09T03:12:09.180Z,11.85
2023-05-09T03:14:36.728Z,11.32
2023-05-09T03:17:04.466Z,11.96
2023-05-09T03:19:32.545Z,11.30
2023-05-09T03:21:59.964Z,11.62
2023-05-09T03:24:28.475Z,11.75
2023-05-09T03:26:55.799Z,11.93
2023-05-09T03:29:23.212Z,11.32
2023-05-09T03:31:51.038Z,11.88
2023-05-09T03:34:18.761Z,11.93
2023-05-09T03:36:46.203Z,11.92
2023-05-09T03:39:14.209Z,11.85
2023-05-09T03:41:43.602Z,12.11
2023-05-09T03:44:11.275Z,12.19
2023-05-09T03:46:38.944Z,11.94
2023-05-09T03:49:06.554Z,11.66
2023-05-09T03:51:34.509Z,11.71
2023-05-09T03:54:02.485Z,11.86
2023-05-09T03:56:30.159Z,11.90
2023-05-09T03:58:57.723Z,10.29
2023-05-09T04:01:25.604Z,10.85
2023-05-09T04:03:53.810Z,9.95
2023-05-09T04:06:21.519Z,11.15
2023-05-09T04:08:48.932Z,11.55
2023-05-09T04:11:16.539Z,11.07
2023-05-09T04:13:44.251Z,11.16
2023-05-09T04:16:13.201Z,10.64
2023-05-09T04:18:42.237Z,11.28
2023-05-09T04:21:09.724Z,11.80
2023-05-09T04:23:38.906Z,11.12
2023-05-09T04:26:07.455Z,11.44
2023-05-09T04:28:35.357Z,11.63
2023-05-09T04:31:03.280Z,11.38
2023-05-09T04:33:31.524Z,11.48
2023-05-09T04:35:59.944Z,11.45
2023-05-09T04:38:27.602Z,11.52
2023-05-09T04:40:55.484Z,11.80
2023-05-09T04:43:22.883Z,11.73
2023-05-09T04:45:50.404Z,12.23
2023-05-09T04:48:18.094Z,12.57
2023-05-09T04:50:48.343Z,13.42
2023-05-09T04:53:15.817Z,13.22
2023-05-09T04:55:44.167Z,13.86
2023-05-09T04:58:11.875Z,14.00
2023-05-09T05:00:39.702Z,15.24
2023-05-09T05:03:08.118Z,15.03
2023-05-09T05:05:37.408Z,16.34
2023-05-09T05:08:05.872Z,18.23
2023-05-09T05:10:34.206Z,19.10
2023-05-09T05:13:02.287Z,18.84
2023-05-09T05:15:29.787Z,18.78
2023-05-09T05:17:57.890Z,17.39
2023-05-09T05:20:26.228Z,16.64
2023-05-09T05:22:54.983Z,17.85
2023-05-09T05:25:23.650Z,19.03
2023-05-09T05:27:51.497Z,20.34
2023-05-09T05:30:20.950Z,18.81
2023-05-09T05:32:49.316Z,18.49
2023-05-09T05:35:17.704Z,20.58
2023-05-09T05:37:46.092Z,21.05
2023-05-09T05:40:14.852Z,21.30
2023-05-09T05:42:44.219Z,21.91
2023-05-09T05:45:12.394Z,23.02
2023-05-09T05:47:41.147Z,23.25
2023-05-09T05:50:12.012Z,24.05
2023-05-09T05:52:40.379Z,23.28
2023-05-09T05:55:08.959Z,22.46
2023-05-09T05:57:37.720Z,24.09
2023-05-09T06:00:11.355Z,23.17
2023-05-09T06:02:53.187Z,21.76
2023-05-09T06:05:21.166Z,21.56
2023-05-09T06:07:48.583Z,21.56
2023-05-09T06:10:17.161Z,21.08
2023-05-09T06:12:45.626Z,19.78
2023-05-09T06:15:13.385Z,21.48
2023-05-09T06:17:43.698Z,22.46
2023-05-09T06:20:11.531Z,23.01
2023-05-09T06:22:39.001Z,22.66
2023-05-09T06:25:08.682Z,22.15
2023-05-09T06:27:38.388Z,21.84
2023-05-09T06:30:21.388Z,22.32
2023-05-09T06:32:53.287Z,22.57
2023-05-09T06:35:20.859Z,22.28
2023-05-09T06:37:49.015Z,23.23
2023-05-09T06:40:17.168Z,22.34
2023-05-09T06:42:44.962Z,23.70
2023-05-09T06:45:12.697Z,24.60
2023-05-09T06:47:40.495Z,24.86
2023-05-09T06:50:08.576Z,24.16
2023-05-09T06:52:35.979Z,25.61
2023-05-09T06:55:04.340Z,27.27
2023-05-09T06:57:31.815Z,27.18
2023-05-09T06:59:59.211Z,24.42
2023-05-09T07:02:26.959Z,25.72
2023-05-09T07:04:54.376Z,24.75
2023-05-09T07:07:22.222Z,24.39
2023-05-09T07:09:52.978Z,24.99
2023-05-09T07:12:22.790Z,25.40
2023-05-09T07:14:50.439Z,25.08
2023-05-09T07:17:23.441Z,25.96
2023-05-09T07:19:51.942Z,25.26
2023-05-09T07:22:19.474Z,26.34
2023-05-09T07:24:47.151Z,27.11
2023-05-09T07:27:14.863Z,26.52
2023-05-09T07:29:42.325Z,28.67
2023-05-09T07:32:09.892Z,27.69
2023-05-09T07:34:37.544Z,27.96
2023-05-09T07:37:04.883Z,27.03
2023-05-09T07:39:32.354Z,27.56
2023-05-09T07:41:59.992Z,26.61
2023-05-09T07:44:27.355Z,26.77
2023-05-09T07:46:55.560Z,27.96
2023-05-09T07:49:23.163Z,27.38
2023-05-09T07:51:50.562Z,25.28
2023-05-09T07:54:17.959Z,25.57
2023-05-09T07:56:45.573Z,26.47
2023-05-09T07:59:12.931Z,28.56
2023-05-09T08:01:40.459Z,28.08
2023-05-09T08:04:09.167Z,29.23
2023-05-09T08:06:36.706Z,27.22
2023-05-09T08:09:04.826Z,26.88
2023-05-09T08:11:36.079Z,27.76
2023-05-09T08:14:03.552Z,27.28
2023-05-09T08:16:31.161Z,29.23
2023-05-09T08:18:58.838Z,27.00
2023-05-09T08:21:26.607Z,27.26
2023-05-09T08:23:53.962Z,27.98
2023-05-09T08:26:22.725Z,28.65
2023-05-09T08:28:50.086Z,28.61
2023-05-09T08:31:17.523Z,27.22
2023-05-09T08:33:45.160Z,28.30
2023-05-09T08:36:12.557Z,28.89
2023-05-09T08:38:40.586Z,30.48
2023-05-09T08:41:08.322Z,29.52
2023-05-09T08:43:35.750Z,31.38
2023-05-09T08:46:10.105Z,27.75
2023-05-09T08:48:37.756Z,30.52
2023-05-09T08:51:06.235Z,29.25
2023-05-09T08:53:34.258Z,30.11
2023-05-09T08:56:03.592Z,26.38
2023-05-09T08:58:31.515Z,26.37
2023-05-09T09:00:58.942Z,27.29
2023-05-09T09:03:26.625Z,27.31
2023-05-09T09:05:54.875Z,28.93
2023-05-09T09:08:22.596Z,30.16
2023-05-09T09:10:50.436Z,32.11
2023-05-09T09:13:18.076Z,31.54
2023-05-09T09:15:46.424Z,28.73
2023-05-09T09:18:23.847Z,29.92
2023-05-09T09:21:04.068Z,26.53
2023-05-09T09:23:31.719Z,30.30
2023-05-09T09:26:00.232Z,30.16
2023-05-09T09:28:28.167Z,30.95
2023-05-09T09:30:55.841Z,30.35
2023-05-09T09:33:24.289Z,30.87
2023-05-09T09:35:53.199Z,30.50
2023-05-09T09:38:23.414Z,31.56
2023-05-09T09:40:56.801Z,30.05
2023-05-09T09:43:30.914Z,30.96
2023-05-09T09:46:04.900Z,29.04
2023-05-09T09:48:34.324Z,27.59
2023-05-09T09:51:11.368Z,29.96
2023-05-09T09:53:42.767Z,27.84
2023-05-09T09:56:10.274Z,27.10
2023-05-09T09:58:37.618Z,28.54
2023-05-09T10:01:16.657Z,25.77
2023-05-09T10:03:45.901Z,25.28
2023-05-09T10:06:14.564Z,24.58
2023-05-09T10:08:46.759Z,24.98
2023-05-09T10:11:14.474Z,24.11
2023-05-09T10:13:42.531Z,24.99
2023-05-09T10:16:10.587Z,25.13
2023-05-09T10:18:38.640Z,24.73
2023-05-09T10:21:06.438Z,22.52
2023-05-09T10:23:34.985Z,22.42
2023-05-09T10:26:16.770Z,23.39
2023-05-09T10:28:45.558Z,23.01
2023-05-09T10:31:16.453Z,22.66
2023-05-09T10:33:47.311Z,24.19
2023-05-09T10:36:17.037Z,24.85
2023-05-09T10:38:44.930Z,24.54
2023-05-09T10:41:12.648Z,23.89
2023-05-09T10:43:40.318Z,23.48
2023-05-09T10:46:07.802Z,22.55
2023-05-09T10:48:35.290Z,21.95
2023-05-09T10:51:03.482Z,22.23
2023-05-09T10:53:41.492Z,22.30
2023-05-09T10:56:09.110Z,20.84
2023-05-09T10:58:37.513Z,20.37
2023-05-09T11:01:05.073Z,20.77
2023-05-09T11:03:53.681Z,20.91
2023-05-09T11:06:39.818Z,19.53
2023-05-09T11:09:35.815Z,20.55
2023-05-09T11:12:06.156Z,20.19
2023-05-09T11:14:47.488Z,19.65
2023-05-09T11:17:14.718Z,18.78
2023-05-09T11:19:48.084Z,19.10
2023-05-09T11:22:19.765Z,19.62
2023-05-09T11:24:47.849Z,20.05
2023-05-09T11:27:26.010Z,20.28
2023-05-09T11:29:54.948Z,20.01
2023-05-09T11:32:23.344Z,20.79
2023-05-09T11:34:50.869Z,21.54
2023-05-09T11:37:19.400Z,21.70
2023-05-09T11:40:00.742Z,21.36
2023-05-09T11:42:28.563Z,21.70
2023-05-09T11:44:58.865Z,21.51
2023-05-09T11:47:26.372Z,20.91
2023-05-09T11:49:54.137Z,21.24
2023-05-09T11:52:22.157Z,21.71
2023-05-09T11:54:50.333Z,21.08
2023-05-09T11:57:18.187Z,20.43
2023-05-09T11:59:45.619Z,20.19
2023-05-09T12:02:13.509Z,20.33
2023-05-09T12:04:41.283Z,21.01
2023-05-09T12:07:08.945Z,21.13
2023-05-09T12:09:39.195Z,21.13
2023-05-09T12:12:13.612Z,21.24
2023-05-09T12:14:41.320Z,20.56
2023-05-09T12:17:09.586Z,20.95
2023-05-09T12:19:37.016Z,20.83
2023-05-09T12:22:05.523Z,20.71
2023-05-09T12:24:35.511Z,21.05
2023-05-09T12:27:02.891Z,20.95
2023-05-09T12:29:30.706Z,20.64
2023-05-09T12:31:59.447Z,20.68
2023-05-09T12:34:26.842Z,21.17
2023-05-09T12:36:54.192Z,21.36
2023-05-09T12:39:23.056Z,21.75
2023-05-09T12:42:00.968Z,21.43
2023-05-09T12:44:30.005Z,20.88
2023-05-09T12:47:03.711Z,21.14
2023-05-09T12:49:32.123Z,21.65
2023-05-09T12:52:02.269Z,21.34
2023-05-09T12:54:31.503Z,21.58
2023-05-09T12:56:58.922Z,21.91
2023-05-09T12:59:27.293Z,21.26
2023-05-09T13:01:56.584Z,21.44
2023-05-09T13:04:25.187Z,21.16
2023-05-09T13:06:56.195Z,21.24
2023-05-09T13:09:24.377Z,21.18
2023-05-09T13:11:51.957Z,20.71
2023-05-09T13:14:20.449Z,20.90
2023-05-09T13:16:48.096Z,20.58
2023-05-09T13:19:16.359Z,20.43
2023-05-09T13:21:43.806Z,20.99
2023-05-09T13:24:11.455Z,21.16
2023-05-09T13:26:38.886Z,21.17
2023-05-09T13:29:06.237Z,21.47
2023-05-09T13:31:33.893Z,21.84
2023-05-09T13:34:01.289Z,20.50
2023-05-09T13:36:28.631Z,18.97
2023-05-09T13:38:56.319Z,20.32
2023-05-09T13:41:24.095Z,20.96
2023-05-09T13:43:51.683Z,20.06
2023-05-09T13:46:19.370Z,20.00
2023-05-09T13:48:47.837Z,19.75
2023-05-09T13:51:15.240Z,20.91
2023-05-09T13:53:42.829Z,20.02
2023-05-09T13:56:10.180Z,20.75
2023-05-09T13:58:37.584Z,20.53
2023-05-09T14:01:05.241Z,20.25
2023-05-09T14:03:33.265Z,19.98
2023-05-09T14:06:00.694Z,20.69
2023-05-09T14:08:28.070Z,20.53
2023-05-09T14:10:55.854Z,20.97
2023-05-09T14:13:23.391Z,20.04
2023-05-09T14:15:50.853Z,19.99
2023-05-09T14:18:20.209Z,19.54
2023-05-09T14:20:48.598Z,19.95
2023-05-09T14:23:16.276Z,20.54
2023-05-09T14:25:43.885Z,21.11
2023-05-09T14:28:11.985Z,20.40
2023-05-09T14:30:39.369Z,20.28
2023-05-09T14:33:07.461Z,20.48
2023-05-09T14:35:34.910Z,20.76
2023-05-09T14:38:02.323Z,20.57
2023-05-09T14:40:31.928Z,20.64
2023-05-09T14:43:02.334Z,20.61
2023-05-09T14:45:31.391Z,19.91
2023-05-09T14:47:59.548Z,20.59
2023-05-09T14:50:26.922Z,19.89
2023-05-09T14:52:54.553Z,19.73
2023-05-09T14:55:23.131Z,20.49
2023-05-09T14:57:50.560Z,20.86
2023-05-09T15:00:21.720Z,20.55
2023-05-09T15:02:50.062Z,19.87
2023-05-09T15:05:18.101Z,20.29
2023-05-09T15:07:45.665Z,20.25
2023-05-09T15:10:13.196Z,20.99
2023-05-09T15:12:41.042Z,20.20
2023-05-09T15:15:18.946Z,20.97
2023-05-09T15:17:46.888Z,21.13
2023-05-09T15:20:18.167Z,21.16
2023-05-09T15:22:49.627Z,20.72
2023-05-09T15:25:17.515Z,20.63
2023-05-09T15:27:44.909Z,20.72
2023-05-09T15:30:12.693Z,20.62
2023-05-09T15:32:43.230Z,21.12
2023-05-09T15:35:10.696Z,20.53
2023-05-09T15:37:38.478Z,20.14
2023-05-09T15:40:07.521Z,20.03
2023-05-09T15:42:35.055Z,20.72
2023-05-09T15:45:03.695Z,20.18
2023-05-09T15:47:31.559Z,19.65
2023-05-09T15:49:58.925Z,20.05
2023-05-09T15:52:27.590Z,19.94
2023-05-09T15:54:55.611Z,20.09
2023-05-09T15:57:23.157Z,20.01
2023-05-09T15:59:50.576Z,19.93
2023-05-09T16:02:18.255Z,19.52
2023-05-09T16:04:45.868Z,19.56
2023-05-09T16:07:13.240Z,19.80
2023-05-09T16:09:40.642Z,20.32
2023-05-09T16:12:09.385Z,20.42
2023-05-09T16:14:36.879Z,19.85
2023-05-09T16:17:04.536Z,19.65
2023-05-09T16:19:33.675Z,19.43
2023-05-09T16:22:02.402Z,19.75
2023-05-09T16:24:31.795Z,19.58
2023-05-09T16:26:59.503Z,19.63
2023-05-09T16:29:28.554Z,19.92
2023-05-09T16:31:56.028Z,19.99
2023-05-09T16:34:23.703Z,19.19
2023-05-09T16:36:52.245Z,19.53
2023-05-09T16:39:19.636Z,19.31
2023-05-09T16:41:47.346Z,19.08
2023-05-09T16:44:15.422Z,19.55
2023-05-09T16:46:42.973Z,18.82
2023-05-09T16:49:11.157Z,19.74
2023-05-09T16:51:38.637Z,19.36
2023-05-09T16:54:06.054Z,19.57
2023-05-09T16:56:34.346Z,19.85
2023-05-09T16:59:01.803Z,19.72
2023-05-09T17:01:29.373Z,18.90
2023-05-09T17:03:57.162Z,19.55
2023-05-09T17:06:24.547Z,19.98
2023-05-09T17:08:51.903Z,20.32
2023-05-09T17:11:19.570Z,19.80
2023-05-09T17:13:46.959Z,19.83
2023-05-09T17:16:14.323Z,20.04
2023-05-09T17:18:45.963Z,19.78
2023-05-09T17:21:16.734Z,19.92
2023-05-09T17:23:44.378Z,19.85
2023-05-09T17:26:11.782Z,19.85
2023-05-09T17:28:39.151Z,19.90
2023-05-09T17:31:06.830Z,19.50
2023-05-09T17:33:34.287Z,19.66
2023-05-09T17:36:01.673Z,19.66
2023-05-09T17:38:30.114Z,19.48
2023-05-09T17:40:57.504Z,19.57
2023-05-09T17:43:24.904Z,19.83
2023-05-09T17:45:52.599Z,19.77
2023-05-09T17:48:20.082Z,18.88
2023-05-09T17:50:47.578Z,18.66
2023-05-09T17:53:15.190Z,19.05
2023-05-09T17:55:42.663Z,18.85
2023-05-09T17:58:10.113Z,19.01
2023-05-09T18:00:37.766Z,18.80
2023-05-09T18:03:05.288Z,19.03
2023-05-09T18:05:33.015Z,19.20
2023-05-09T18:08:01.287Z,18.55
2023-05-09T18:10:29.064Z,18.67
2023-05-09T18:12:57.153Z,18.76
2023-05-09T18:15:24.716Z,18.57
2023-05-09T18:17:53.799Z,18.72
2023-05-09T18:20:21.912Z,18.60
2023-05-09T18:22:49.271Z,18.16
2023-05-09T18:25:17.504Z,18.70
2023-05-09T18:27:45.210Z,17.67
2023-05-09T18:30:12.992Z,18.02
2023-05-09T18:32:40.933Z,17.96
2023-05-09T18:35:08.877Z,17.90
2023-05-09T18:37:36.922Z,18.08
2023-05-09T18:40:05.426Z,18.27
2023-05-09T18:42:32.999Z,18.38
2023-05-09T18:45:01.002Z,18.55
2023-05-09T18:47:28.448Z,17.91
2023-05-09T18:49:56.086Z,17.95
2023-05-09T18:52:23.530Z,18.27
2023-05-09T18:54:50.866Z,18.00
2023-05-09T18:57:19.659Z,17.64
2023-05-09T18:59:47.088Z,17.66
2023-05-09T19:02:14.572Z,17.55
2023-05-09T19:04:42.293Z,17.25
2023-05-09T19:07:10.102Z,17.23
2023-05-09T19:09:37.494Z,17.26
2023-05-09T19:12:05.811Z,16.91
2023-05-09T19:14:33.165Z,17.06
2023-05-09T19:17:00.660Z,17.51
2023-05-09T19:19:28.434Z,17.82
2023-05-09T19:21:55.767Z,17.71
2023-05-09T19:24:23.136Z,17.07
2023-05-09T19:26:51.101Z,17.37
2023-05-09T19:29:18.448Z,17.59
2023-05-09T19:31:45.920Z,17.78
2023-05-09T19:34:13.619Z,17.61
2023-05-09T19:36:41.054Z,17.29
2023-05-09T19:39:09.085Z,17.21
2023-05-09T19:41:36.839Z,17.23
2023-05-09T19:44:04.353Z,17.48
2023-05-09T19:46:31.765Z,16.87
2023-05-09T19:48:59.484Z,16.92
2023-05-09T19:51:26.935Z,17.38
2023-05-09T19:53:54.392Z,16.95
2023-05-09T19:56:23.263Z,17.41
2023-05-09T19:58:50.728Z,17.15
2023-05-09T20:01:19.031Z,16.52
2023-05-09T20:03:47.121Z,16.85
2023-05-09T20:06:14.590Z,16.67
2023-05-09T20:08:41.925Z,17.22
2023-05-09T20:11:09.461Z,16.52
2023-05-09T20:13:36.742Z,16.23
2023-05-09T20:16:04.178Z,16.26
2023-05-09T20:18:34.966Z,16.96
2023-05-09T20:21:02.824Z,16.80
2023-05-09T20:23:30.157Z,17.04
2023-05-09T20:25:57.800Z,16.93
2023-05-09T20:28:25.197Z,17.49
2023-05-09T20:30:52.478Z,16.73
2023-05-09T20:33:20.063Z,17.25
2023-05-09T20:35:49.127Z,17.31
2023-05-09T20:38:16.513Z,17.24
2023-05-09T20:40:44.129Z,16.96
2023-05-09T20:43:11.466Z,16.50
2023-05-09T20:45:38.866Z,16.49
2023-05-09T20:48:06.732Z,16.88
2023-05-09T20:50:34.092Z,17.11
2023-05-09T20:53:01.443Z,16.99
2023-05-09T20:55:29.124Z,16.52
2023-05-09T20:57:56.434Z,16.56
2023-05-09T21:00:23.746Z,16.52
2023-05-09T21:02:51.448Z,16.73
2023-05-09T21:05:18.785Z,16.50
2023-05-09T21:07:46.069Z,16.34
2023-05-09T21:10:13.915Z,16.57
2023-05-09T21:12:41.411Z,16.31
2023-05-09T21:15:09.106Z,16.29
2023-05-09T21:17:36.779Z,16.46
2023-05-09T21:20:04.433Z,16.85
2023-05-09T21:22:31.804Z,16.62
2023-05-09T21:24:59.351Z,16.19
2023-05-09T21:27:27.038Z,16.41
2023-05-09T21:29:54.290Z,16.09
2023-05-09T21:32:21.913Z,15.74
2023-05-09T21:34:49.234Z,15.91
2023-05-09T21:37:16.525Z,15.97
2023-05-09T21:39:45.155Z,16.10
2023-05-09T21:42:12.460Z,15.96
2023-05-09T21:44:39.789Z,16.70
2023-05-09T21:47:07.420Z,16.33
2023-05-09T21:49:34.803Z,16.44
2023-05-09T21:52:02.112Z,16.23
2023-05-09T21:54:29.699Z,16.49
2023-05-09T21:56:57.091Z,16.57
2023-05-09T21:59:24.394Z,16.06
2023-05-09T22:01:52.035Z,16.05
2023-05-09T22:04:19.612Z,15.78
2023-05-09T22:06:46.934Z,15.57
2023-05-09T22:09:14.328Z,15.80
2023-05-09T22:11:42.118Z,15.64
2023-05-09T22:14:10.285Z,16.08
2023-05-09T22:16:38.215Z,16.23
2023-05-09T22:19:05.984Z,16.27
2023-05-09T22:21:33.402Z,16.31
2023-05-09T22:24:00.774Z,15.68
2023-05-09T22:26:28.389Z,15.85
2023-05-09T22:28:56.052Z,15.99
2023-05-09T22:31:23.486Z,15.88
2023-05-09T22:33:51.146Z,15.99
2023-05-09T22:36:18.444Z,16.48
2023-05-09T22:38:46.053Z,15.60
2023-05-09T22:41:14.078Z,15.59
2023-05-09T22:43:41.545Z,15.70
2023-05-09T22:46:08.932Z,15.88
2023-05-09T22:48:36.567Z,16.47
2023-05-09T22:51:04.038Z,16.62
2023-05-09T22:53:32.699Z,16.41
2023-05-09T22:56:00.339Z,16.11
2023-05-09T22:58:27.797Z,15.79
2023-05-09T23:00:55.227Z,15.90
2023-05-09T23:03:23.196Z,15.63
2023-05-09T23:05:51.164Z,15.63
2023-05-09T23:08:18.490Z,15.88
2023-05-09T23:10:46.137Z,16.03
2023-05-09T23:13:13.506Z,16.07
2023-05-09T23:15:40.967Z,14.78
2023-05-09T23:18:08.883Z,15.62
2023-05-09T23:20:36.936Z,14.52
2023-05-09T23:23:04.316Z,15.01
2023-05-09T23:25:32.045Z,15.19
2023-05-09T23:27:59.369Z,15.88
2023-05-09T23:30:26.698Z,15.90
2023-05-09T23:32:54.373Z,15.55
2023-05-09T23:35:22.265Z,15.59
2023-05-09T23:37:49.601Z,15.43
2023-05-09T23:40:17.409Z,15.31
2023-05-09T23:42:44.952Z,15.58
2023-05-09T23:45:12.829Z,15.64
2023-05-09T23:47:40.499Z,15.89
2023-05-09T23:50:08.370Z,15.05
2023-05-09T23:52:36.011Z,15.38
2023-05-09T23:55:03.864Z,15.58
2023-05-09T23:57:31.211Z,15.69
2023-05-09T23:59:58.650Z,15.87
